Terminal Aerodrome Forecast
Issued by NWS Northern Indiana

Home | Current Version | Previous Version | Text Only | Print | Product List | Glossary Off
Versions: 1 2 3 4 5 6 7 8 9 10 11 12 13 14 15 16 17

676
FTUS43 KIWX 181720
TAFFWA
TAF
KFWA 181720Z 1818/1918 26008KT P6SM OVC010
     FM190600 24006KT P6SM SCT015
     FM191000 22004KT P6SM BKN050=

USA.gov is the U.S. government's official web portal to all federal, state and local government web resources and services.